Terminal Aerodrome Forecast
Issued by NWS

Home | Current Version | Previous Version | Text Only | Print | Product List | Glossary On
Versions: 1 2 3 4 5 6 7 8 9 10 11 12 13 14 15 16 17 18
000
FTUS43 KJKL 142300
TAFSJS
TAF
KSJS 142332Z 1500/1524 00000KT P6SM FEW025
     FM151000 00000KT 1SM BR VV005
     FM151230 00000KT 1/4SM FG VV002
     FM151400 25005KT P6SM SCT040 BKN250=

USA.gov is the U.S. government's official web portal to all federal, state and local government web resources and services.